createdAt,value
2019-01-21T00:02:13.061Z,33.20
2019-01-21T00:04:46.228Z,33.20
2019-01-21T00:07:19.024Z,33.30
2019-01-21T00:09:51.800Z,33.30
2019-01-21T00:12:24.576Z,33.40
2019-01-21T00:14:57.564Z,33.30
2019-01-21T00:17:30.464Z,33.10
2019-01-21T00:20:03.530Z,33.00
2019-01-21T00:22:36.338Z,33.00
2019-01-21T00:25:11.222Z,33.00
2019-01-21T00:27:44.133Z,33.00
2019-01-21T00:30:17.498Z,32.80
2019-01-21T00:32:50.331Z,32.80
2019-01-21T00:35:23.306Z,32.80
2019-01-21T00:37:56.083Z,32.90
2019-01-21T00:40:28.739Z,32.90
2019-01-21T00:43:01.719Z,32.90
2019-01-21T00:45:34.627Z,32.90
2019-01-21T00:48:07.603Z,32.80
2019-01-21T00:50:40.537Z,32.80
2019-01-21T00:53:13.400Z,32.80
2019-01-21T00:55:46.370Z,32.90
2019-01-21T00:58:19.158Z,33.00
2019-01-21T01:00:53.223Z,33.20
2019-01-21T01:03:25.957Z,33.20
2019-01-21T01:06:00.325Z,33.20
2019-01-21T01:08:33.156Z,33.30
2019-01-21T01:11:06.068Z,33.30
2019-01-21T01:13:38.925Z,33.40
2019-01-21T01:16:11.996Z,33.60
2019-01-21T01:18:44.925Z,33.90
2019-01-21T01:21:17.873Z,34.10
2019-01-21T01:23:51.288Z,34.50
2019-01-21T01:26:24.882Z,34.90
2019-01-21T01:28:58.282Z,35.30
2019-01-21T01:31:32.821Z,35.70
2019-01-21T01:34:06.492Z,36.10
2019-01-21T01:36:39.285Z,36.60
2019-01-21T01:39:12.349Z,37.20
2019-01-21T01:41:45.382Z,37.60
2019-01-21T01:44:19.510Z,37.40
2019-01-21T01:46:52.266Z,37.30
2019-01-21T01:49:25.985Z,36.50
2019-01-21T01:51:58.962Z,37.80
2019-01-21T01:54:32.017Z,38.60
2019-01-21T01:57:05.017Z,39.20
2019-01-21T01:59:37.924Z,38.80
2019-01-21T02:02:11.746Z,38.40
2019-01-21T02:04:44.597Z,38.50
2019-01-21T02:07:17.564Z,37.70
2019-01-21T02:09:50.246Z,36.40
2019-01-21T02:12:23.141Z,35.50
2019-01-21T02:14:55.998Z,34.70
2019-01-21T02:17:29.327Z,34.00
2019-01-21T02:20:05.350Z,33.50
2019-01-21T02:22:40.410Z,32.80
2019-01-21T02:25:13.390Z,32.30
2019-01-21T02:28:01.313Z,31.80
2019-01-21T02:30:42.792Z,31.30
2019-01-21T02:33:35.521Z,31.10
2019-01-21T02:36:28.425Z,30.80
2019-01-21T02:39:09.290Z,30.50
2019-01-21T02:41:43.346Z,30.30
2019-01-21T02:44:36.590Z,30.10
2019-01-21T02:47:15.834Z,29.80
2019-01-21T02:50:07.112Z,29.60
2019-01-21T02:52:44.871Z,29.40
2019-01-21T02:55:52.411Z,29.10
2019-01-21T02:58:30.381Z,29.00
2019-01-21T03:01:04.991Z,28.90
2019-01-21T03:03:48.909Z,28.80
2019-01-21T03:06:29.374Z,28.80
2019-01-21T03:09:08.253Z,28.70
2019-01-21T03:12:04.064Z,28.80
2019-01-21T03:14:48.324Z,28.70
2019-01-21T03:17:40.093Z,28.60
2019-01-21T03:20:24.085Z,28.50
2019-01-21T03:23:18.096Z,28.50
2019-01-21T03:26:13.191Z,28.40
2019-01-21T03:28:53.052Z,28.40
2019-01-21T03:31:36.813Z,28.30
2019-01-21T03:34:30.054Z,28.20
2019-01-21T03:37:05.184Z,28.20
2019-01-21T03:39:49.246Z,28.10
2019-01-21T03:42:27.384Z,28.10
2019-01-21T03:45:35.543Z,28.10
2019-01-21T03:48:16.497Z,28.10
2019-01-21T03:50:52.689Z,28.10
2019-01-21T03:53:29.592Z,28.10
2019-01-21T03:56:03.837Z,28.10
2019-01-21T03:58:42.012Z,28.10
2019-01-21T04:01:33.356Z,28.10
2019-01-21T04:04:11.477Z,28.10
2019-01-21T04:06:52.317Z,28.10
2019-01-21T04:09:39.595Z,28.00
2019-01-21T04:12:26.519Z,28.00
2019-01-21T04:15:34.466Z,27.90
2019-01-21T04:18:25.536Z,27.80
2019-01-21T04:21:16.612Z,27.70
2019-01-21T04:24:09.317Z,27.60
2019-01-21T04:26:50.053Z,27.60
2019-01-21T04:29:34.118Z,27.50
2019-01-21T04:32:12.780Z,27.40
2019-01-21T04:34:56.270Z,27.30
2019-01-21T04:37:43.476Z,27.20
2019-01-21T04:40:27.144Z,27.30
2019-01-21T04:43:14.142Z,27.30
2019-01-21T04:45:51.569Z,27.30
2019-01-21T04:48:35.866Z,27.20
2019-01-21T04:51:10.663Z,27.10
2019-01-21T04:54:08.066Z,27.00
2019-01-21T04:57:18.027Z,26.90
2019-01-21T05:00:12.842Z,26.80
2019-01-21T05:03:10.246Z,26.70
2019-01-21T05:05:47.977Z,26.60
2019-01-21T05:08:44.104Z,26.60
2019-01-21T05:11:47.649Z,26.50
2019-01-21T05:14:32.606Z,26.40
2019-01-21T05:17:19.898Z,26.30
2019-01-21T05:20:06.742Z,26.20
2019-01-21T05:23:00.476Z,26.10
2019-01-21T05:25:36.699Z,26.10
2019-01-21T05:28:27.130Z,26.00
2019-01-21T05:31:12.360Z,25.90
2019-01-21T05:33:50.286Z,25.90
2019-01-21T05:36:40.422Z,25.70
2019-01-21T05:39:51.730Z,25.60
2019-01-21T05:42:44.790Z,25.30
2019-01-21T05:45:23.541Z,25.00
2019-01-21T05:48:04.051Z,24.80
2019-01-21T05:50:49.014Z,24.80
2019-01-21T05:53:47.381Z,24.70
2019-01-21T05:56:26.584Z,24.70
2019-01-21T05:59:22.937Z,24.70
2019-01-21T06:02:04.627Z,24.60
2019-01-21T06:07:25.732Z,24.50
2019-01-21T06:10:09.703Z,24.50
2019-01-21T06:12:44.578Z,24.40
2019-01-21T06:15:28.373Z,24.40
2019-01-21T06:18:21.532Z,24.30
2019-01-21T06:21:04.724Z,24.20
2019-01-21T06:23:43.782Z,24.10
2019-01-21T06:26:38.683Z,24.00
2019-01-21T06:29:16.416Z,24.00
2019-01-21T06:32:12.127Z,23.90
2019-01-21T06:34:46.900Z,23.80
2019-01-21T06:37:38.227Z,23.70
2019-01-21T06:40:39.095Z,23.70
2019-01-21T06:43:30.609Z,23.60
2019-01-21T06:46:32.949Z,23.50
2019-01-21T06:49:13.797Z,23.50
2019-01-21T06:52:00.673Z,23.50
2019-01-21T06:54:53.476Z,23.40
2019-01-21T06:57:35.087Z,23.40
2019-01-21T07:00:15.783Z,23.30
2019-01-21T07:03:09.268Z,23.20
2019-01-21T07:05:58.925Z,23.10
2019-01-21T07:08:37.274Z,23.00
2019-01-21T07:11:19.155Z,23.00
2019-01-21T07:14:15.467Z,22.90
2019-01-21T07:16:59.500Z,22.90
2019-01-21T07:19:40.199Z,22.90
2019-01-21T07:22:17.814Z,22.80
2019-01-21T07:25:15.240Z,22.90
2019-01-21T07:27:58.965Z,22.80
2019-01-21T07:30:43.928Z,22.80
2019-01-21T07:33:24.839Z,22.70
2019-01-21T07:36:06.117Z,22.70
2019-01-21T07:38:53.362Z,22.70
2019-01-21T07:41:31.113Z,22.60
2019-01-21T07:44:17.959Z,22.60
2019-01-21T07:47:26.104Z,22.60
2019-01-21T07:50:06.492Z,22.50
2019-01-21T07:52:58.183Z,22.50
2019-01-21T07:55:51.015Z,22.50
2019-01-21T07:58:34.692Z,22.50
2019-01-21T08:01:30.439Z,22.50
2019-01-21T08:04:30.545Z,22.50
2019-01-21T08:07:31.009Z,22.50
2019-01-21T08:10:31.818Z,22.50
2019-01-21T08:13:06.709Z,22.50
2019-01-21T08:15:43.933Z,22.50
2019-01-21T08:18:27.602Z,22.50
2019-01-21T08:21:16.991Z,22.50
2019-01-21T08:24:07.196Z,22.50
2019-01-21T08:26:56.786Z,22.50
2019-01-21T08:29:35.227Z,22.50
2019-01-21T08:32:26.340Z,22.50
2019-01-21T08:35:21.726Z,22.50
2019-01-21T08:38:15.070Z,22.50
2019-01-21T08:40:58.825Z,22.40
2019-01-21T08:43:33.730Z,22.40
2019-01-21T08:46:14.562Z,22.40
2019-01-21T08:49:04.664Z,22.40
2019-01-21T08:51:50.982Z,22.40
2019-01-21T08:54:35.019Z,22.30
2019-01-21T08:57:15.661Z,22.30
2019-01-21T09:00:10.252Z,22.30
2019-01-21T09:02:53.726Z,22.30
2019-01-21T09:05:40.221Z,22.30
2019-01-21T09:08:15.208Z,22.20
2019-01-21T09:10:56.655Z,22.20
2019-01-21T09:14:03.291Z,22.20
2019-01-21T09:16:46.075Z,22.20
2019-01-21T09:19:27.584Z,22.10
2019-01-21T09:22:09.014Z,22.10
2019-01-21T09:24:46.237Z,22.10
2019-01-21T09:27:33.427Z,22.10
2019-01-21T09:30:26.631Z,22.00
2019-01-21T09:33:25.083Z,22.00
2019-01-21T09:36:18.998Z,21.90
2019-01-21T09:38:59.936Z,21.80
2019-01-21T09:41:49.896Z,21.70
2019-01-21T09:44:24.957Z,21.60
2019-01-21T09:46:55.628Z,21.60
2019-01-21T09:49:26.253Z,21.50
2019-01-21T09:52:00.881Z,21.50
2019-01-21T09:54:33.721Z,21.50
2019-01-21T09:57:07.857Z,21.50
2019-01-21T09:59:40.656Z,21.40
2019-01-21T10:02:14.045Z,21.40
2019-01-21T10:04:49.003Z,21.40
2019-01-21T10:07:32.721Z,21.30
2019-01-21T10:10:13.820Z,21.30
2019-01-21T10:13:11.174Z,21.20
2019-01-21T10:15:57.831Z,21.20
2019-01-21T10:18:44.397Z,21.20
2019-01-21T10:21:40.297Z,21.10
2019-01-21T10:24:48.134Z,21.10
2019-01-21T10:27:25.624Z,21.00
2019-01-21T10:30:00.525Z,21.00
2019-01-21T10:32:53.393Z,21.00
2019-01-21T10:35:34.353Z,21.00
2019-01-21T10:38:27.676Z,20.90
2019-01-21T10:41:06.486Z,20.90
2019-01-21T10:44:12.826Z,20.90
2019-01-21T10:46:53.538Z,20.80
2019-01-21T10:49:28.643Z,20.80
2019-01-21T10:52:32.698Z,20.80
2019-01-21T10:55:13.887Z,20.80
2019-01-21T10:58:11.475Z,20.70
2019-01-21T11:00:46.126Z,20.70
2019-01-21T11:03:36.157Z,20.60
2019-01-21T11:06:14.078Z,20.60
2019-01-21T11:09:08.194Z,20.60
2019-01-21T11:11:46.358Z,20.60
2019-01-21T11:14:39.209Z,20.60
2019-01-21T11:17:42.762Z,20.50
2019-01-21T11:20:39.654Z,20.40
2019-01-21T11:23:32.315Z,20.40
2019-01-21T11:26:40.364Z,20.30
2019-01-21T11:29:15.064Z,20.30
2019-01-21T11:31:54.981Z,20.30
2019-01-21T11:34:52.481Z,20.30
2019-01-21T11:37:30.137Z,20.30
2019-01-21T11:40:39.589Z,20.20
2019-01-21T11:43:38.243Z,20.20
2019-01-21T11:46:29.672Z,20.10
2019-01-21T11:49:25.454Z,20.10
2019-01-21T11:52:19.253Z,20.10
2019-01-21T11:55:23.981Z,20.10
2019-01-21T11:58:20.909Z,20.00
2019-01-21T12:01:11.998Z,20.00
2019-01-21T12:04:20.090Z,20.00
2019-01-21T12:06:54.762Z,20.00
2019-01-21T12:09:38.912Z,20.00
2019-01-21T12:12:17.390Z,20.00
2019-01-21T12:14:52.417Z,20.00
2019-01-21T12:17:42.321Z,20.00
2019-01-21T12:20:26.952Z,20.00
2019-01-21T12:23:33.737Z,19.90
2019-01-21T12:26:08.774Z,20.00
2019-01-21T12:28:49.796Z,20.00
2019-01-21T12:31:30.954Z,20.00
2019-01-21T12:34:11.551Z,19.90
2019-01-21T12:36:46.356Z,19.90
2019-01-21T12:39:38.818Z,20.00
2019-01-21T12:42:19.665Z,20.00
2019-01-21T12:44:57.505Z,20.00
2019-01-21T12:47:44.442Z,20.00
2019-01-21T12:50:52.358Z,20.10
2019-01-21T12:53:39.387Z,20.10
2019-01-21T12:56:41.655Z,20.10
2019-01-21T12:59:37.714Z,20.20
2019-01-21T13:02:15.211Z,20.20
2019-01-21T13:05:02.379Z,20.20
2019-01-21T13:07:40.216Z,20.20
2019-01-21T13:10:31.268Z,20.30
2019-01-21T13:13:09.334Z,20.30
2019-01-21T13:15:53.031Z,20.30
2019-01-21T13:18:44.155Z,20.40
2019-01-21T13:21:53.896Z,20.40
2019-01-21T13:24:46.291Z,20.30
2019-01-21T13:27:40.515Z,20.30
2019-01-21T13:30:30.713Z,20.30
2019-01-21T13:33:23.532Z,20.30
2019-01-21T13:35:58.465Z,20.30
2019-01-21T13:38:57.624Z,20.30
2019-01-21T13:41:49.892Z,20.20
2019-01-21T13:44:28.209Z,20.20
2019-01-21T13:47:12.393Z,20.10
2019-01-21T13:50:07.300Z,20.10
2019-01-21T13:52:50.841Z,20.10
2019-01-21T13:55:37.877Z,20.10
2019-01-21T13:58:34.040Z,20.00
2019-01-21T14:01:08.836Z,20.00
2019-01-21T14:03:52.874Z,20.00
2019-01-21T14:06:33.635Z,20.00
2019-01-21T14:09:12.211Z,20.00
2019-01-21T14:12:11.548Z,19.90
2019-01-21T14:14:46.671Z,19.90
2019-01-21T14:17:38.206Z,19.90
2019-01-21T14:20:21.602Z,19.80
2019-01-21T14:23:11.246Z,19.80
2019-01-21T14:25:57.724Z,19.80
2019-01-21T14:28:47.581Z,19.70
2019-01-21T14:31:51.398Z,19.70
2019-01-21T14:34:30.336Z,19.70
2019-01-21T14:37:23.792Z,19.60
2019-01-21T14:39:58.390Z,19.60
2019-01-21T14:42:45.774Z,19.60
2019-01-21T14:45:20.684Z,19.60
2019-01-21T14:48:01.159Z,19.60
2019-01-21T14:50:50.438Z,19.50
2019-01-21T14:53:24.501Z,19.50
2019-01-21T14:56:04.935Z,19.50
2019-01-21T14:58:45.906Z,19.50
2019-01-21T15:01:35.486Z,19.50
2019-01-21T15:04:11.138Z,19.50
2019-01-21T15:06:49.091Z,19.50
2019-01-21T15:09:42.359Z,19.40
2019-01-21T15:12:32.628Z,19.40
2019-01-21T15:15:34.022Z,19.40
2019-01-21T15:18:25.088Z,19.40
2019-01-21T15:21:04.373Z,19.30
2019-01-21T15:23:58.588Z,19.30
2019-01-21T15:26:36.280Z,19.30
2019-01-21T15:29:23.115Z,19.30
2019-01-21T15:32:09.992Z,19.40
2019-01-21T15:34:48.184Z,19.40
2019-01-21T15:37:42.604Z,19.40
2019-01-21T15:40:36.754Z,19.50
2019-01-21T15:43:17.998Z,19.50
2019-01-21T15:46:12.090Z,19.50
2019-01-21T15:48:56.197Z,19.50
2019-01-21T15:51:36.262Z,19.50
2019-01-21T15:54:20.249Z,19.50
2019-01-21T15:57:09.859Z,19.50
2019-01-21T15:59:45.099Z,19.50
2019-01-21T16:02:37.736Z,19.50
2019-01-21T16:05:30.380Z,19.50
2019-01-21T16:08:06.311Z,19.50
2019-01-21T16:10:53.282Z,19.50
2019-01-21T16:13:30.975Z,19.50
2019-01-21T16:16:20.885Z,19.60
2019-01-21T16:19:01.807Z,19.60
2019-01-21T16:21:42.993Z,19.60
2019-01-21T16:24:36.919Z,19.60
2019-01-21T16:27:25.098Z,19.50
2019-01-21T16:29:59.807Z,19.50
2019-01-21T16:32:34.516Z,19.50
2019-01-21T16:35:15.147Z,19.40
2019-01-21T16:37:53.089Z,19.40
2019-01-21T16:40:42.703Z,19.40
2019-01-21T16:43:15.753Z,19.40
2019-01-21T16:45:48.530Z,19.40
2019-01-21T16:48:21.385Z,19.40
2019-01-21T16:50:54.357Z,19.40
2019-01-21T16:53:27.509Z,19.40
2019-01-21T16:56:00.274Z,19.40
2019-01-21T16:58:33.346Z,19.30
2019-01-21T17:01:06.334Z,19.30
2019-01-21T17:03:39.410Z,19.30
2019-01-21T17:06:12.215Z,19.30
2019-01-21T17:08:44.994Z,19.30
2019-01-21T17:11:17.975Z,19.30
2019-01-21T17:14:10.271Z,19.20
2019-01-21T17:16:43.405Z,19.20
2019-01-21T17:19:16.189Z,19.20
2019-01-21T17:21:49.179Z,19.20
2019-01-21T17:24:21.851Z,19.20
2019-01-21T17:26:55.481Z,19.20
2019-01-21T17:29:28.357Z,19.10
2019-01-21T17:32:01.591Z,19.10
2019-01-21T17:34:34.330Z,19.10
2019-01-21T17:37:07.314Z,19.10
2019-01-21T17:39:40.086Z,19.10
2019-01-21T17:42:13.056Z,19.00
2019-01-21T17:44:45.731Z,19.10
2019-01-21T17:47:18.642Z,19.10
2019-01-21T17:49:51.507Z,19.10
2019-01-21T17:52:24.415Z,19.10
2019-01-21T17:54:57.197Z,19.10
2019-01-21T17:57:30.099Z,19.10
2019-01-21T18:00:03.428Z,19.10
2019-01-21T18:02:36.549Z,19.20
2019-01-21T18:05:10.242Z,19.20
2019-01-21T18:07:43.351Z,19.20
2019-01-21T18:10:18.307Z,19.20
2019-01-21T18:12:51.360Z,19.20
2019-01-21T18:15:24.273Z,19.30
2019-01-21T18:17:57.274Z,19.30
2019-01-21T18:20:30.323Z,19.30
2019-01-21T18:23:03.121Z,19.40
2019-01-21T18:25:36.102Z,19.50
2019-01-21T18:28:08.883Z,19.50
2019-01-21T18:30:42.064Z,19.50
2019-01-21T18:33:15.051Z,19.60
2019-01-21T18:35:48.045Z,19.60
2019-01-21T18:38:20.818Z,19.70
2019-01-21T18:40:53.813Z,19.70
2019-01-21T18:43:26.593Z,19.70
2019-01-21T18:45:59.809Z,19.70
2019-01-21T18:48:32.688Z,19.80
2019-01-21T18:51:05.752Z,19.90
2019-01-21T18:53:38.425Z,19.90
2019-01-21T18:56:12.240Z,20.00
2019-01-21T18:58:45.132Z,20.20
2019-01-21T19:01:18.134Z,20.30
2019-01-21T19:03:50.896Z,20.40
2019-01-21T19:06:23.853Z,20.50
2019-01-21T19:08:56.874Z,20.70
2019-01-21T19:11:29.852Z,20.90
2019-01-21T19:14:02.630Z,21.00
2019-01-21T19:16:35.826Z,21.00
2019-01-21T19:19:09.450Z,21.00
2019-01-21T19:21:42.503Z,20.80
2019-01-21T19:24:15.399Z,20.80
2019-01-21T19:26:48.439Z,20.70
2019-01-21T19:29:21.438Z,20.60
2019-01-21T19:31:54.563Z,20.70
2019-01-21T19:34:27.237Z,20.80
2019-01-21T19:37:00.126Z,20.90
2019-01-21T19:39:33.546Z,21.10
2019-01-21T19:42:06.310Z,21.00
2019-01-21T19:44:39.837Z,21.00
2019-01-21T19:47:12.695Z,20.90
2019-01-21T19:49:45.762Z,21.00
2019-01-21T19:52:18.675Z,21.20
2019-01-21T19:54:51.667Z,21.40
2019-01-21T19:57:24.450Z,21.50
2019-01-21T19:59:57.411Z,21.80
2019-01-21T20:02:30.228Z,22.10
2019-01-21T20:05:02.983Z,22.30
2019-01-21T20:07:35.895Z,22.40
2019-01-21T20:10:10.702Z,22.30
2019-01-21T20:12:43.785Z,22.10
2019-01-21T20:15:18.145Z,21.90
2019-01-21T20:17:51.800Z,21.90
2019-01-21T20:20:26.954Z,21.90
2019-01-21T20:23:00.099Z,21.80
2019-01-21T20:25:33.040Z,21.90
2019-01-21T20:28:06.180Z,21.90
2019-01-21T20:30:39.108Z,21.90
2019-01-21T20:33:12.052Z,21.90
2019-01-21T20:35:44.973Z,21.80
2019-01-21T20:38:17.629Z,21.80
2019-01-21T20:40:50.671Z,21.80
2019-01-21T20:43:23.517Z,21.70
2019-01-21T20:45:56.490Z,21.90
2019-01-21T20:48:29.284Z,22.20
2019-01-21T20:51:02.338Z,22.20
2019-01-21T20:53:36.387Z,22.20
2019-01-21T20:56:09.474Z,22.20
2019-01-21T20:58:42.138Z,22.10
2019-01-21T21:01:16.209Z,22.10
2019-01-21T21:03:50.353Z,22.10
2019-01-21T21:06:23.250Z,22.10
2019-01-21T21:08:56.064Z,22.10
2019-01-21T21:11:29.224Z,22.10
2019-01-21T21:14:02.011Z,22.20
2019-01-21T21:16:35.095Z,22.50
2019-01-21T21:19:08.007Z,22.80
2019-01-21T21:21:42.071Z,23.10
2019-01-21T21:24:15.898Z,23.40
2019-01-21T21:26:48.871Z,23.60
2019-01-21T21:29:21.862Z,23.60
2019-01-21T21:31:55.006Z,23.80
2019-01-21T21:34:27.963Z,23.90
2019-01-21T21:37:00.868Z,24.20
2019-01-21T21:39:33.745Z,24.30
2019-01-21T21:42:06.717Z,24.00
2019-01-21T21:44:39.501Z,23.80
2019-01-21T21:47:12.688Z,23.80
2019-01-21T21:49:45.461Z,24.00
2019-01-21T21:52:18.517Z,24.10
2019-01-21T21:54:51.454Z,24.10
2019-01-21T21:57:24.709Z,24.30
2019-01-21T21:59:57.645Z,24.60
2019-01-21T22:02:31.323Z,24.70
2019-01-21T22:05:04.358Z,24.50
2019-01-21T22:07:37.550Z,24.80
2019-01-21T22:10:12.106Z,24.90
2019-01-21T22:12:45.302Z,25.30
2019-01-21T22:15:19.895Z,25.40
2019-01-21T22:17:53.031Z,25.20
2019-01-21T22:20:26.979Z,25.30
2019-01-21T22:23:00.239Z,25.70
2019-01-21T22:25:34.143Z,25.90
2019-01-21T22:28:07.228Z,26.20
2019-01-21T22:30:40.212Z,26.60
2019-01-21T22:33:13.008Z,26.60
2019-01-21T22:35:46.169Z,26.20
2019-01-21T22:38:19.397Z,25.90
2019-01-21T22:40:52.297Z,25.60
2019-01-21T22:43:25.157Z,25.30
2019-01-21T22:45:58.210Z,25.60
2019-01-21T22:48:31.137Z,25.50
2019-01-21T22:51:03.976Z,25.50
2019-01-21T22:53:36.895Z,25.70
2019-01-21T22:56:09.971Z,25.80
2019-01-21T22:58:42.877Z,25.90
2019-01-21T23:01:21.885Z,26.50
2019-01-21T23:03:54.784Z,26.80
2019-01-21T23:06:27.967Z,27.20
2019-01-21T23:09:00.760Z,27.30
2019-01-21T23:11:33.543Z,27.30
2019-01-21T23:14:07.004Z,27.80
2019-01-21T23:16:39.925Z,28.00
2019-01-21T23:19:12.900Z,27.80
2019-01-21T23:21:45.897Z,27.50
2019-01-21T23:24:19.076Z,27.80
2019-01-21T23:26:51.880Z,27.80
2019-01-21T23:29:25.252Z,28.20
2019-01-21T23:31:58.116Z,28.20
2019-01-21T23:34:31.429Z,28.10
2019-01-21T23:37:04.433Z,28.00
2019-01-21T23:39:37.994Z,27.60
2019-01-21T23:42:11.521Z,27.30
2019-01-21T23:44:45.317Z,27.00
2019-01-21T23:47:18.092Z,27.00
2019-01-21T23:49:51.411Z,26.70
2019-01-21T23:52:24.270Z,26.30
2019-01-21T23:54:57.290Z,26.30
2019-01-21T23:57:30.154Z,26.30
